<?xml version="1.0" encoding="UTF-8" standalone="no" ?>
<gpx xmlns="http://www.topografix.com/GPX/1/1" xmlns:xsi="http://www.w3.org/2001/XMLSchema-instance" xsi:schemaLocation="http://www.topografix.com/GPX/1/1 http://www.topografix.com/GPX/1/1/gpx.xsd" version="1.1" creator="VisuGPX - https://www.visugpx.com">
  <metadata>
    <name>Robiac - Le Champ Beau</name>
    <desc><![CDATA[De Robiac-Rochessadoule, une boucle par la chapelle Lachamp autour du Champ Beau.]]></desc>
  </metadata>
  <trk>
    <name><![CDATA[2013-06-04-01 Robiac Chamb Beau1]]></name>
    <trkseg>
      <trkpt lat="44.27377" lon="4.1258">
        <ele>180</ele>
        <time>2013-06-04T13:11:42Z</time>
      </trkpt>
      <trkpt lat="44.27384" lon="4.12558">
        <ele>178</ele>
        <time>2013-06-04T13:14:09Z</time>
      </trkpt>
      <trkpt lat="44.27385" lon="4.12557">
        <ele>178</ele>
        <time>2013-06-04T13:14:10Z</time>
      </trkpt>
      <trkpt lat="44.27407" lon="4.12522">
        <ele>181</ele>
        <time>2013-06-04T13:14:45Z</time>
      </trkpt>
      <trkpt lat="44.27422" lon="4.12509">
        <ele>178</ele>
        <time>2013-06-04T13:14:59Z</time>
      </trkpt>
      <trkpt lat="44.27431" lon="4.12489">
        <ele>176</ele>
        <time>2013-06-04T13:15:14Z</time>
      </trkpt>
      <trkpt lat="44.27432" lon="4.12488">
        <ele>175</ele>
        <time>2013-06-04T13:15:15Z</time>
      </trkpt>
      <trkpt lat="44.27446" lon="4.12449">
        <ele>174</ele>
        <time>2013-06-04T13:15:44Z</time>
      </trkpt>
      <trkpt lat="44.27452" lon="4.12426">
        <ele>174</ele>
        <time>2013-06-04T13:16:01Z</time>
      </trkpt>
      <trkpt lat="44.27443" lon="4.12405">
        <ele>175</ele>
        <time>2013-06-04T13:16:17Z</time>
      </trkpt>
      <trkpt lat="44.27443" lon="4.12404">
        <ele>175</ele>
        <time>2013-06-04T13:16:18Z</time>
      </trkpt>
      <trkpt lat="44.2742" lon="4.1237">
        <ele>178</ele>
        <time>2013-06-04T13:16:52Z</time>
      </trkpt>
      <trkpt lat="44.27408" lon="4.12351">
        <ele>178</ele>
        <time>2013-06-04T13:17:08Z</time>
      </trkpt>
      <trkpt lat="44.27398" lon="4.12331">
        <ele>182</ele>
        <time>2013-06-04T13:17:19Z</time>
      </trkpt>
      <trkpt lat="44.27397" lon="4.12329">
        <ele>182</ele>
        <time>2013-06-04T13:17:20Z</time>
      </trkpt>
      <trkpt lat="44.27384" lon="4.12287">
        <ele>178</ele>
        <time>2013-06-04T13:17:48Z</time>
      </trkpt>
      <trkpt lat="44.27376" lon="4.12265">
        <ele>178</ele>
        <time>2013-06-04T13:18:04Z</time>
      </trkpt>
      <trkpt lat="44.27366" lon="4.12245">
        <ele>180</ele>
        <time>2013-06-04T13:18:17Z</time>
      </trkpt>
      <trkpt lat="44.27349" lon="4.12235">
        <ele>181</ele>
        <time>2013-06-04T13:18:35Z</time>
      </trkpt>
      <trkpt lat="44.27348" lon="4.12235">
        <ele>181</ele>
        <time>2013-06-04T13:18:36Z</time>
      </trkpt>
      <trkpt lat="44.27317" lon="4.12217">
        <ele>180</ele>
        <time>2013-06-04T13:19:06Z</time>
      </trkpt>
      <trkpt lat="44.27308" lon="4.12197">
        <ele>181</ele>
        <time>2013-06-04T13:19:20Z</time>
      </trkpt>
      <trkpt lat="44.27299" lon="4.12176">
        <ele>182</ele>
        <time>2013-06-04T13:19:35Z</time>
      </trkpt>
      <trkpt lat="44.27288" lon="4.12158">
        <ele>184</ele>
        <time>2013-06-04T13:19:51Z</time>
      </trkpt>
      <trkpt lat="44.27287" lon="4.12157">
        <ele>184</ele>
        <time>2013-06-04T13:19:52Z</time>
      </trkpt>
      <trkpt lat="44.27292" lon="4.1211">
        <ele>184</ele>
        <time>2013-06-04T13:20:30Z</time>
      </trkpt>
      <trkpt lat="44.27289" lon="4.12085">
        <ele>198</ele>
        <time>2013-06-04T13:20:56Z</time>
      </trkpt>
      <trkpt lat="44.27289" lon="4.12084">
        <ele>199</ele>
        <time>2013-06-04T13:20:57Z</time>
      </trkpt>
      <trkpt lat="44.27266" lon="4.12049">
        <ele>200</ele>
        <time>2013-06-04T13:21:58Z</time>
      </trkpt>
      <trkpt lat="44.27265" lon="4.12048">
        <ele>199</ele>
        <time>2013-06-04T13:21:59Z</time>
      </trkpt>
      <trkpt lat="44.27251" lon="4.12003">
        <ele>214</ele>
        <time>2013-06-04T13:23:01Z</time>
      </trkpt>
      <trkpt lat="44.27251" lon="4.12003">
        <ele>214</ele>
        <time>2013-06-04T13:23:02Z</time>
      </trkpt>
      <trkpt lat="44.2722" lon="4.11978">
        <ele>212</ele>
        <time>2013-06-04T13:23:53Z</time>
      </trkpt>
      <trkpt lat="44.27203" lon="4.11973">
        <ele>240</ele>
        <time>2013-06-04T13:24:23Z</time>
      </trkpt>
      <trkpt lat="44.27203" lon="4.11973">
        <ele>240</ele>
        <time>2013-06-04T13:24:24Z</time>
      </trkpt>
      <trkpt lat="44.27174" lon="4.11945">
        <ele>226</ele>
        <time>2013-06-04T13:25:18Z</time>
      </trkpt>
      <trkpt lat="44.27159" lon="4.11932">
        <ele>229</ele>
        <time>2013-06-04T13:25:44Z</time>
      </trkpt>
      <trkpt lat="44.27159" lon="4.11931">
        <ele>229</ele>
        <time>2013-06-04T13:25:45Z</time>
      </trkpt>
      <trkpt lat="44.27125" lon="4.1192">
        <ele>238</ele>
        <time>2013-06-04T13:26:41Z</time>
      </trkpt>
      <trkpt lat="44.27108" lon="4.11912">
        <ele>241</ele>
        <time>2013-06-04T13:27:13Z</time>
      </trkpt>
      <trkpt lat="44.27108" lon="4.11912">
        <ele>241</ele>
        <time>2013-06-04T13:27:14Z</time>
      </trkpt>
      <trkpt lat="44.27082" lon="4.11879">
        <ele>248</ele>
        <time>2013-06-04T13:28:05Z</time>
      </trkpt>
      <trkpt lat="44.27068" lon="4.11864">
        <ele>251</ele>
        <time>2013-06-04T13:28:30Z</time>
      </trkpt>
      <trkpt lat="44.27067" lon="4.11864">
        <ele>252</ele>
        <time>2013-06-04T13:28:31Z</time>
      </trkpt>
      <trkpt lat="44.27034" lon="4.11855">
        <ele>262</ele>
        <time>2013-06-04T13:29:33Z</time>
      </trkpt>
      <trkpt lat="44.27033" lon="4.11854">
        <ele>264</ele>
        <time>2013-06-04T13:29:34Z</time>
      </trkpt>
      <trkpt lat="44.26999" lon="4.11841">
        <ele>264</ele>
        <time>2013-06-04T13:30:44Z</time>
      </trkpt>
      <trkpt lat="44.26999" lon="4.1184">
        <ele>265</ele>
        <time>2013-06-04T13:30:45Z</time>
      </trkpt>
      <trkpt lat="44.26969" lon="4.1185">
        <ele>274</ele>
        <time>2013-06-04T13:32:11Z</time>
      </trkpt>
      <trkpt lat="44.26968" lon="4.1185">
        <ele>273</ele>
        <time>2013-06-04T13:32:12Z</time>
      </trkpt>
      <trkpt lat="44.26955" lon="4.11895">
        <ele>275</ele>
        <time>2013-06-04T13:33:48Z</time>
      </trkpt>
      <trkpt lat="44.26954" lon="4.11896">
        <ele>275</ele>
        <time>2013-06-04T13:33:49Z</time>
      </trkpt>
      <trkpt lat="44.26921" lon="4.11882">
        <ele>284</ele>
        <time>2013-06-04T13:35:13Z</time>
      </trkpt>
      <trkpt lat="44.2692" lon="4.11882">
        <ele>284</ele>
        <time>2013-06-04T13:35:14Z</time>
      </trkpt>
      <trkpt lat="44.26894" lon="4.1185">
        <ele>291</ele>
        <time>2013-06-04T13:36:30Z</time>
      </trkpt>
      <trkpt lat="44.26893" lon="4.1185">
        <ele>291</ele>
        <time>2013-06-04T13:36:31Z</time>
      </trkpt>
      <trkpt lat="44.26868" lon="4.11818">
        <ele>298</ele>
        <time>2013-06-04T13:37:46Z</time>
      </trkpt>
      <trkpt lat="44.26868" lon="4.11817">
        <ele>298</ele>
        <time>2013-06-04T13:37:47Z</time>
      </trkpt>
      <trkpt lat="44.26857" lon="4.11771">
        <ele>305</ele>
        <time>2013-06-04T13:42:16Z</time>
      </trkpt>
      <trkpt lat="44.26857" lon="4.11769">
        <ele>305</ele>
        <time>2013-06-04T13:42:17Z</time>
      </trkpt>
      <trkpt lat="44.26863" lon="4.11723">
        <ele>311</ele>
        <time>2013-06-04T13:44:37Z</time>
      </trkpt>
      <trkpt lat="44.26864" lon="4.11722">
        <ele>310</ele>
        <time>2013-06-04T13:44:38Z</time>
      </trkpt>
      <trkpt lat="44.26878" lon="4.11678">
        <ele>321</ele>
        <time>2013-06-04T13:46:05Z</time>
      </trkpt>
      <trkpt lat="44.26878" lon="4.11678">
        <ele>321</ele>
        <time>2013-06-04T13:46:06Z</time>
      </trkpt>
      <trkpt lat="44.26881" lon="4.11629">
        <ele>336</ele>
        <time>2013-06-04T13:47:45Z</time>
      </trkpt>
      <trkpt lat="44.26882" lon="4.11629">
        <ele>336</ele>
        <time>2013-06-04T13:47:46Z</time>
      </trkpt>
      <trkpt lat="44.26888" lon="4.11581">
        <ele>347</ele>
        <time>2013-06-04T13:49:17Z</time>
      </trkpt>
      <trkpt lat="44.26888" lon="4.1158">
        <ele>347</ele>
        <time>2013-06-04T13:49:18Z</time>
      </trkpt>
      <trkpt lat="44.26883" lon="4.11531">
        <ele>360</ele>
        <time>2013-06-04T13:50:56Z</time>
      </trkpt>
      <trkpt lat="44.26883" lon="4.11531">
        <ele>360</ele>
        <time>2013-06-04T13:50:57Z</time>
      </trkpt>
      <trkpt lat="44.26896" lon="4.11486">
        <ele>371</ele>
        <time>2013-06-04T13:52:38Z</time>
      </trkpt>
      <trkpt lat="44.26896" lon="4.11486">
        <ele>371</ele>
        <time>2013-06-04T13:52:39Z</time>
      </trkpt>
      <trkpt lat="44.26903" lon="4.11438">
        <ele>386</ele>
        <time>2013-06-04T13:54:23Z</time>
      </trkpt>
      <trkpt lat="44.26903" lon="4.11438">
        <ele>386</ele>
        <time>2013-06-04T13:54:24Z</time>
      </trkpt>
      <trkpt lat="44.26907" lon="4.11414">
        <ele>392</ele>
        <time>2013-06-04T13:59:05Z</time>
      </trkpt>
      <trkpt lat="44.26898" lon="4.11368">
        <ele>399</ele>
        <time>2013-06-04T14:00:11Z</time>
      </trkpt>
      <trkpt lat="44.26898" lon="4.11367">
        <ele>399</ele>
        <time>2013-06-04T14:00:12Z</time>
      </trkpt>
      <trkpt lat="44.26912" lon="4.11323">
        <ele>408</ele>
        <time>2013-06-04T14:02:20Z</time>
      </trkpt>
      <trkpt lat="44.26912" lon="4.11323">
        <ele>407</ele>
        <time>2013-06-04T14:02:21Z</time>
      </trkpt>
      <trkpt lat="44.2693" lon="4.11281">
        <ele>413</ele>
        <time>2013-06-04T14:03:59Z</time>
      </trkpt>
      <trkpt lat="44.2693" lon="4.11281">
        <ele>413</ele>
        <time>2013-06-04T14:04:00Z</time>
      </trkpt>
      <trkpt lat="44.26945" lon="4.11237">
        <ele>420</ele>
        <time>2013-06-04T14:05:06Z</time>
      </trkpt>
      <trkpt lat="44.26945" lon="4.11236">
        <ele>420</ele>
        <time>2013-06-04T14:05:07Z</time>
      </trkpt>
      <trkpt lat="44.26951" lon="4.11188">
        <ele>430</ele>
        <time>2013-06-04T14:06:34Z</time>
      </trkpt>
      <trkpt lat="44.26951" lon="4.11188">
        <ele>430</ele>
        <time>2013-06-04T14:06:35Z</time>
      </trkpt>
      <trkpt lat="44.26949" lon="4.11141">
        <ele>435</ele>
        <time>2013-06-04T14:07:48Z</time>
      </trkpt>
      <trkpt lat="44.26948" lon="4.1114">
        <ele>435</ele>
        <time>2013-06-04T14:07:49Z</time>
      </trkpt>
      <trkpt lat="44.26946" lon="4.11092">
        <ele>444</ele>
        <time>2013-06-04T14:08:57Z</time>
      </trkpt>
      <trkpt lat="44.26946" lon="4.11091">
        <ele>444</ele>
        <time>2013-06-04T14:08:58Z</time>
      </trkpt>
      <trkpt lat="44.26941" lon="4.11067">
        <ele>444</ele>
        <time>2013-06-04T14:15:14Z</time>
      </trkpt>
      <trkpt lat="44.26924" lon="4.11025">
        <ele>446</ele>
        <time>2013-06-04T14:16:04Z</time>
      </trkpt>
      <trkpt lat="44.26918" lon="4.11002">
        <ele>448</ele>
        <time>2013-06-04T14:16:30Z</time>
      </trkpt>
      <trkpt lat="44.26918" lon="4.11001">
        <ele>448</ele>
        <time>2013-06-04T14:16:31Z</time>
      </trkpt>
      <trkpt lat="44.26912" lon="4.10954">
        <ele>454</ele>
        <time>2013-06-04T14:17:26Z</time>
      </trkpt>
      <trkpt lat="44.26906" lon="4.10931">
        <ele>455</ele>
        <time>2013-06-04T14:17:51Z</time>
      </trkpt>
      <trkpt lat="44.26905" lon="4.1093">
        <ele>455</ele>
        <time>2013-06-04T14:17:52Z</time>
      </trkpt>
      <trkpt lat="44.26891" lon="4.10886">
        <ele>462</ele>
        <time>2013-06-04T14:18:38Z</time>
      </trkpt>
      <trkpt lat="44.26886" lon="4.10862">
        <ele>462</ele>
        <time>2013-06-04T14:19:01Z</time>
      </trkpt>
      <trkpt lat="44.26886" lon="4.10861">
        <ele>462</ele>
        <time>2013-06-04T14:19:02Z</time>
      </trkpt>
      <trkpt lat="44.26895" lon="4.10849">
        <ele>478</ele>
        <time>2013-06-04T14:20:11Z</time>
      </trkpt>
      <trkpt lat="44.26896" lon="4.10849">
        <ele>478</ele>
        <time>2013-06-04T14:20:12Z</time>
      </trkpt>
      <trkpt lat="44.26914" lon="4.10847">
        <ele>485</ele>
        <time>2013-06-04T14:21:30Z</time>
      </trkpt>
      <trkpt lat="44.26936" lon="4.1084">
        <ele>491</ele>
        <time>2013-06-04T14:22:41Z</time>
      </trkpt>
      <trkpt lat="44.26936" lon="4.10839">
        <ele>491</ele>
        <time>2013-06-04T14:22:42Z</time>
      </trkpt>
      <trkpt lat="44.26925" lon="4.10794">
        <ele>491</ele>
        <time>2013-06-04T14:23:43Z</time>
      </trkpt>
      <trkpt lat="44.26924" lon="4.10793">
        <ele>491</ele>
        <time>2013-06-04T14:23:44Z</time>
      </trkpt>
      <trkpt lat="44.2692" lon="4.10769">
        <ele>497</ele>
        <time>2013-06-04T14:24:48Z</time>
      </trkpt>
      <trkpt lat="44.26909" lon="4.1075">
        <ele>500</ele>
        <time>2013-06-04T14:27:16Z</time>
      </trkpt>
      <trkpt lat="44.26888" lon="4.10711">
        <ele>503</ele>
        <time>2013-06-04T14:28:03Z</time>
      </trkpt>
      <trkpt lat="44.26881" lon="4.10689">
        <ele>504</ele>
        <time>2013-06-04T14:28:28Z</time>
      </trkpt>
      <trkpt lat="44.26881" lon="4.10688">
        <ele>504</ele>
        <time>2013-06-04T14:28:29Z</time>
      </trkpt>
      <trkpt lat="44.26871" lon="4.10642">
        <ele>504</ele>
        <time>2013-06-04T14:29:10Z</time>
      </trkpt>
      <trkpt lat="44.26865" lon="4.10619">
        <ele>506</ele>
        <time>2013-06-04T14:29:30Z</time>
      </trkpt>
      <trkpt lat="44.26865" lon="4.10618">
        <ele>506</ele>
        <time>2013-06-04T14:29:31Z</time>
      </trkpt>
      <trkpt lat="44.26857" lon="4.10571">
        <ele>508</ele>
        <time>2013-06-04T14:30:12Z</time>
      </trkpt>
      <trkpt lat="44.26855" lon="4.10547">
        <ele>508</ele>
        <time>2013-06-04T14:30:31Z</time>
      </trkpt>
      <trkpt lat="44.26856" lon="4.10522">
        <ele>508</ele>
        <time>2013-06-04T14:30:51Z</time>
      </trkpt>
      <trkpt lat="44.26856" lon="4.10521">
        <ele>508</ele>
        <time>2013-06-04T14:30:52Z</time>
      </trkpt>
      <trkpt lat="44.26846" lon="4.10476">
        <ele>516</ele>
        <time>2013-06-04T14:31:39Z</time>
      </trkpt>
      <trkpt lat="44.26832" lon="4.10461">
        <ele>520</ele>
        <time>2013-06-04T14:32:05Z</time>
      </trkpt>
      <trkpt lat="44.26831" lon="4.1046">
        <ele>520</ele>
        <time>2013-06-04T14:32:06Z</time>
      </trkpt>
      <trkpt lat="44.26812" lon="4.1042">
        <ele>525</ele>
        <time>2013-06-04T14:32:55Z</time>
      </trkpt>
      <trkpt lat="44.26804" lon="4.10399">
        <ele>525</ele>
        <time>2013-06-04T14:33:20Z</time>
      </trkpt>
      <trkpt lat="44.26803" lon="4.10398">
        <ele>525</ele>
        <time>2013-06-04T14:33:21Z</time>
      </trkpt>
      <trkpt lat="44.26792" lon="4.10352">
        <ele>528</ele>
        <time>2013-06-04T14:34:12Z</time>
      </trkpt>
      <trkpt lat="44.26788" lon="4.10328">
        <ele>528</ele>
        <time>2013-06-04T14:34:37Z</time>
      </trkpt>
      <trkpt lat="44.26788" lon="4.10327">
        <ele>528</ele>
        <time>2013-06-04T14:34:38Z</time>
      </trkpt>
      <trkpt lat="44.26778" lon="4.10282">
        <ele>532</ele>
        <time>2013-06-04T14:35:26Z</time>
      </trkpt>
      <trkpt lat="44.26768" lon="4.10262">
        <ele>529</ele>
        <time>2013-06-04T14:35:46Z</time>
      </trkpt>
      <trkpt lat="44.26768" lon="4.10261">
        <ele>529</ele>
        <time>2013-06-04T14:35:47Z</time>
      </trkpt>
      <trkpt lat="44.26747" lon="4.10222">
        <ele>528</ele>
        <time>2013-06-04T14:36:28Z</time>
      </trkpt>
      <trkpt lat="44.26736" lon="4.10202">
        <ele>529</ele>
        <time>2013-06-04T14:36:51Z</time>
      </trkpt>
      <trkpt lat="44.26735" lon="4.10201">
        <ele>529</ele>
        <time>2013-06-04T14:36:52Z</time>
      </trkpt>
      <trkpt lat="44.2671" lon="4.10171">
        <ele>525</ele>
        <time>2013-06-04T14:37:30Z</time>
      </trkpt>
      <trkpt lat="44.26695" lon="4.10159">
        <ele>526</ele>
        <time>2013-06-04T14:37:48Z</time>
      </trkpt>
      <trkpt lat="44.26678" lon="4.10152">
        <ele>526</ele>
        <time>2013-06-04T14:38:03Z</time>
      </trkpt>
      <trkpt lat="44.26678" lon="4.10152">
        <ele>526</ele>
        <time>2013-06-04T14:38:04Z</time>
      </trkpt>
      <trkpt lat="44.26656" lon="4.10115">
        <ele>522</ele>
        <time>2013-06-04T14:38:46Z</time>
      </trkpt>
      <trkpt lat="44.2664" lon="4.10104">
        <ele>522</ele>
        <time>2013-06-04T14:39:00Z</time>
      </trkpt>
      <trkpt lat="44.26624" lon="4.10096">
        <ele>521</ele>
        <time>2013-06-04T14:39:16Z</time>
      </trkpt>
      <trkpt lat="44.26623" lon="4.10095">
        <ele>521</ele>
        <time>2013-06-04T14:39:17Z</time>
      </trkpt>
      <trkpt lat="44.26593" lon="4.10076">
        <ele>527</ele>
        <time>2013-06-04T14:39:55Z</time>
      </trkpt>
      <trkpt lat="44.26583" lon="4.10096">
        <ele>532</ele>
        <time>2013-06-04T14:40:15Z</time>
      </trkpt>
      <trkpt lat="44.26571" lon="4.10114">
        <ele>538</ele>
        <time>2013-06-04T14:40:36Z</time>
      </trkpt>
      <trkpt lat="44.2657" lon="4.10115">
        <ele>538</ele>
        <time>2013-06-04T14:40:37Z</time>
      </trkpt>
      <trkpt lat="44.2654" lon="4.10112">
        <ele>540</ele>
        <time>2013-06-04T14:41:31Z</time>
      </trkpt>
      <trkpt lat="44.26537" lon="4.10088">
        <ele>538</ele>
        <time>2013-06-04T14:41:58Z</time>
      </trkpt>
      <trkpt lat="44.26537" lon="4.10087">
        <ele>538</ele>
        <time>2013-06-04T14:41:59Z</time>
      </trkpt>
      <trkpt lat="44.26521" lon="4.10046">
        <ele>542</ele>
        <time>2013-06-04T14:42:48Z</time>
      </trkpt>
      <trkpt lat="44.26507" lon="4.1003">
        <ele>540</ele>
        <time>2013-06-04T14:43:15Z</time>
      </trkpt>
      <trkpt lat="44.26507" lon="4.10029">
        <ele>540</ele>
        <time>2013-06-04T14:43:16Z</time>
      </trkpt>
      <trkpt lat="44.26481" lon="4.09998">
        <ele>545</ele>
        <time>2013-06-04T14:44:14Z</time>
      </trkpt>
      <trkpt lat="44.26467" lon="4.09983">
        <ele>546</ele>
        <time>2013-06-04T14:44:34Z</time>
      </trkpt>
      <trkpt lat="44.26466" lon="4.09983">
        <ele>546</ele>
        <time>2013-06-04T14:44:35Z</time>
      </trkpt>
      <trkpt lat="44.26445" lon="4.09944">
        <ele>553</ele>
        <time>2013-06-04T14:45:57Z</time>
      </trkpt>
      <trkpt lat="44.26444" lon="4.09944">
        <ele>553</ele>
        <time>2013-06-04T14:45:58Z</time>
      </trkpt>
      <trkpt lat="44.26457" lon="4.09964">
        <ele>557</ele>
        <time>2013-06-04T14:49:26Z</time>
      </trkpt>
      <trkpt lat="44.26461" lon="4.10009">
        <ele>556</ele>
        <time>2013-06-04T14:50:17Z</time>
      </trkpt>
      <trkpt lat="44.26468" lon="4.1003">
        <ele>555</ele>
        <time>2013-06-04T14:50:36Z</time>
      </trkpt>
      <trkpt lat="44.26468" lon="4.10032">
        <ele>555</ele>
        <time>2013-06-04T14:50:37Z</time>
      </trkpt>
      <trkpt lat="44.26434" lon="4.10025">
        <ele>564</ele>
        <time>2013-06-04T14:51:40Z</time>
      </trkpt>
      <trkpt lat="44.26434" lon="4.10025">
        <ele>564</ele>
        <time>2013-06-04T14:51:41Z</time>
      </trkpt>
      <trkpt lat="44.26403" lon="4.10003">
        <ele>575</ele>
        <time>2013-06-04T14:52:38Z</time>
      </trkpt>
      <trkpt lat="44.26385" lon="4.1">
        <ele>578</ele>
        <time>2013-06-04T14:53:16Z</time>
      </trkpt>
      <trkpt lat="44.26385" lon="4.1">
        <ele>578</ele>
        <time>2013-06-04T14:53:17Z</time>
      </trkpt>
      <trkpt lat="44.26357" lon="4.0997">
        <ele>581</ele>
        <time>2013-06-04T14:54:30Z</time>
      </trkpt>
      <trkpt lat="44.26357" lon="4.09969">
        <ele>581</ele>
        <time>2013-06-04T14:54:31Z</time>
      </trkpt>
      <trkpt lat="44.26348" lon="4.09923">
        <ele>586</ele>
        <time>2013-06-04T14:55:21Z</time>
      </trkpt>
      <trkpt lat="44.26341" lon="4.099">
        <ele>587</ele>
        <time>2013-06-04T14:55:46Z</time>
      </trkpt>
      <trkpt lat="44.26341" lon="4.09899">
        <ele>587</ele>
        <time>2013-06-04T14:55:47Z</time>
      </trkpt>
      <trkpt lat="44.26316" lon="4.09865">
        <ele>599</ele>
        <time>2013-06-04T14:56:37Z</time>
      </trkpt>
      <trkpt lat="44.26307" lon="4.09843">
        <ele>596</ele>
        <time>2013-06-04T14:56:59Z</time>
      </trkpt>
      <trkpt lat="44.26307" lon="4.09843">
        <ele>596</ele>
        <time>2013-06-04T14:57:00Z</time>
      </trkpt>
      <trkpt lat="44.26288" lon="4.09801">
        <ele>599</ele>
        <time>2013-06-04T14:57:45Z</time>
      </trkpt>
      <trkpt lat="44.26277" lon="4.09782">
        <ele>604</ele>
        <time>2013-06-04T14:58:07Z</time>
      </trkpt>
      <trkpt lat="44.26277" lon="4.09781">
        <ele>604</ele>
        <time>2013-06-04T14:58:08Z</time>
      </trkpt>
      <trkpt lat="44.26253" lon="4.09746">
        <ele>607</ele>
        <time>2013-06-04T14:59:04Z</time>
      </trkpt>
      <trkpt lat="44.2624" lon="4.09729">
        <ele>615</ele>
        <time>2013-06-04T14:59:29Z</time>
      </trkpt>
      <trkpt lat="44.2624" lon="4.09729">
        <ele>615</ele>
        <time>2013-06-04T14:59:30Z</time>
      </trkpt>
      <trkpt lat="44.26213" lon="4.09698">
        <ele>619</ele>
        <time>2013-06-04T15:00:17Z</time>
      </trkpt>
      <trkpt lat="44.26201" lon="4.0968">
        <ele>620</ele>
        <time>2013-06-04T15:00:38Z</time>
      </trkpt>
      <trkpt lat="44.26201" lon="4.0968">
        <ele>620</ele>
        <time>2013-06-04T15:00:39Z</time>
      </trkpt>
      <trkpt lat="44.26177" lon="4.09644">
        <ele>625</ele>
        <time>2013-06-04T15:01:23Z</time>
      </trkpt>
      <trkpt lat="44.26168" lon="4.09624">
        <ele>626</ele>
        <time>2013-06-04T15:01:43Z</time>
      </trkpt>
      <trkpt lat="44.26167" lon="4.09623">
        <ele>627</ele>
        <time>2013-06-04T15:01:44Z</time>
      </trkpt>
      <trkpt lat="44.26144" lon="4.09588">
        <ele>631</ele>
        <time>2013-06-04T15:02:23Z</time>
      </trkpt>
      <trkpt lat="44.2613" lon="4.09575">
        <ele>635</ele>
        <time>2013-06-04T15:02:42Z</time>
      </trkpt>
      <trkpt lat="44.26122" lon="4.09554">
        <ele>634</ele>
        <time>2013-06-04T15:03:04Z</time>
      </trkpt>
      <trkpt lat="44.26121" lon="4.09553">
        <ele>635</ele>
        <time>2013-06-04T15:03:05Z</time>
      </trkpt>
      <trkpt lat="44.26093" lon="4.09533">
        <ele>636</ele>
        <time>2013-06-04T15:12:25Z</time>
      </trkpt>
      <trkpt lat="44.26093" lon="4.09532">
        <ele>636</ele>
        <time>2013-06-04T15:12:26Z</time>
      </trkpt>
      <trkpt lat="44.26075" lon="4.09536">
        <ele>630</ele>
        <time>2013-06-04T15:18:00Z</time>
      </trkpt>
      <trkpt lat="44.26041" lon="4.09535">
        <ele>622</ele>
        <time>2013-06-04T15:19:09Z</time>
      </trkpt>
      <trkpt lat="44.2604" lon="4.09535">
        <ele>622</ele>
        <time>2013-06-04T15:19:10Z</time>
      </trkpt>
      <trkpt lat="44.26008" lon="4.09541">
        <ele>606</ele>
        <time>2013-06-04T15:20:30Z</time>
      </trkpt>
      <trkpt lat="44.26007" lon="4.09541">
        <ele>606</ele>
        <time>2013-06-04T15:20:31Z</time>
      </trkpt>
      <trkpt lat="44.25973" lon="4.09545">
        <ele>598</ele>
        <time>2013-06-04T15:21:35Z</time>
      </trkpt>
      <trkpt lat="44.25973" lon="4.09545">
        <ele>598</ele>
        <time>2013-06-04T15:21:36Z</time>
      </trkpt>
      <trkpt lat="44.2594" lon="4.09563">
        <ele>586</ele>
        <time>2013-06-04T15:22:47Z</time>
      </trkpt>
      <trkpt lat="44.2594" lon="4.09563">
        <ele>586</ele>
        <time>2013-06-04T15:22:48Z</time>
      </trkpt>
      <trkpt lat="44.25905" lon="4.09565">
        <ele>577</ele>
        <time>2013-06-04T15:23:51Z</time>
      </trkpt>
      <trkpt lat="44.25905" lon="4.09565">
        <ele>577</ele>
        <time>2013-06-04T15:23:52Z</time>
      </trkpt>
      <trkpt lat="44.25871" lon="4.09573">
        <ele>566</ele>
        <time>2013-06-04T15:24:43Z</time>
      </trkpt>
      <trkpt lat="44.25853" lon="4.09576">
        <ele>565</ele>
        <time>2013-06-04T15:25:11Z</time>
      </trkpt>
      <trkpt lat="44.25853" lon="4.09576">
        <ele>565</ele>
        <time>2013-06-04T15:25:12Z</time>
      </trkpt>
      <trkpt lat="44.2582" lon="4.09591">
        <ele>558</ele>
        <time>2013-06-04T15:26:22Z</time>
      </trkpt>
      <trkpt lat="44.25819" lon="4.09591">
        <ele>558</ele>
        <time>2013-06-04T15:26:23Z</time>
      </trkpt>
      <trkpt lat="44.25791" lon="4.09619">
        <ele>547</ele>
        <time>2013-06-04T15:27:42Z</time>
      </trkpt>
      <trkpt lat="44.2579" lon="4.0962">
        <ele>547</ele>
        <time>2013-06-04T15:27:43Z</time>
      </trkpt>
      <trkpt lat="44.25763" lon="4.0965">
        <ele>535</ele>
        <time>2013-06-04T15:29:02Z</time>
      </trkpt>
      <trkpt lat="44.25762" lon="4.09651">
        <ele>534</ele>
        <time>2013-06-04T15:29:03Z</time>
      </trkpt>
      <trkpt lat="44.25732" lon="4.09675">
        <ele>520</ele>
        <time>2013-06-04T15:30:03Z</time>
      </trkpt>
      <trkpt lat="44.25718" lon="4.0969">
        <ele>516</ele>
        <time>2013-06-04T15:30:30Z</time>
      </trkpt>
      <trkpt lat="44.25718" lon="4.09691">
        <ele>516</ele>
        <time>2013-06-04T15:30:31Z</time>
      </trkpt>
      <trkpt lat="44.25689" lon="4.09717">
        <ele>510</ele>
        <time>2013-06-04T15:31:24Z</time>
      </trkpt>
      <trkpt lat="44.25677" lon="4.09734">
        <ele>507</ele>
        <time>2013-06-04T15:31:44Z</time>
      </trkpt>
      <trkpt lat="44.25677" lon="4.09735">
        <ele>508</ele>
        <time>2013-06-04T15:31:45Z</time>
      </trkpt>
      <trkpt lat="44.25652" lon="4.09767">
        <ele>510</ele>
        <time>2013-06-04T15:32:26Z</time>
      </trkpt>
      <trkpt lat="44.25638" lon="4.09784">
        <ele>511</ele>
        <time>2013-06-04T15:32:47Z</time>
      </trkpt>
      <trkpt lat="44.25638" lon="4.09784">
        <ele>512</ele>
        <time>2013-06-04T15:32:48Z</time>
      </trkpt>
      <trkpt lat="44.25606" lon="4.09803">
        <ele>508</ele>
        <time>2013-06-04T15:33:27Z</time>
      </trkpt>
      <trkpt lat="44.25588" lon="4.09809">
        <ele>503</ele>
        <time>2013-06-04T15:33:48Z</time>
      </trkpt>
      <trkpt lat="44.2557" lon="4.09808">
        <ele>499</ele>
        <time>2013-06-04T15:34:12Z</time>
      </trkpt>
      <trkpt lat="44.25569" lon="4.09808">
        <ele>499</ele>
        <time>2013-06-04T15:34:13Z</time>
      </trkpt>
      <trkpt lat="44.25535" lon="4.09811">
        <ele>498</ele>
        <time>2013-06-04T15:34:56Z</time>
      </trkpt>
      <trkpt lat="44.25518" lon="4.09819">
        <ele>497</ele>
        <time>2013-06-04T15:35:20Z</time>
      </trkpt>
      <trkpt lat="44.25518" lon="4.09819">
        <ele>497</ele>
        <time>2013-06-04T15:35:21Z</time>
      </trkpt>
      <trkpt lat="44.25494" lon="4.09855">
        <ele>489</ele>
        <time>2013-06-04T15:36:14Z</time>
      </trkpt>
      <trkpt lat="44.25484" lon="4.09876">
        <ele>488</ele>
        <time>2013-06-04T15:36:40Z</time>
      </trkpt>
      <trkpt lat="44.25483" lon="4.09877">
        <ele>488</ele>
        <time>2013-06-04T15:36:41Z</time>
      </trkpt>
      <trkpt lat="44.25456" lon="4.09906">
        <ele>482</ele>
        <time>2013-06-04T15:37:30Z</time>
      </trkpt>
      <trkpt lat="44.25442" lon="4.0992">
        <ele>477</ele>
        <time>2013-06-04T15:37:57Z</time>
      </trkpt>
      <trkpt lat="44.25441" lon="4.09921">
        <ele>477</ele>
        <time>2013-06-04T15:37:58Z</time>
      </trkpt>
      <trkpt lat="44.25419" lon="4.09956">
        <ele>471</ele>
        <time>2013-06-04T15:38:42Z</time>
      </trkpt>
      <trkpt lat="44.25408" lon="4.09976">
        <ele>470</ele>
        <time>2013-06-04T15:39:01Z</time>
      </trkpt>
      <trkpt lat="44.25408" lon="4.09976">
        <ele>470</ele>
        <time>2013-06-04T15:39:02Z</time>
      </trkpt>
      <trkpt lat="44.2538" lon="4.10005">
        <ele>468</ele>
        <time>2013-06-04T15:39:44Z</time>
      </trkpt>
      <trkpt lat="44.25373" lon="4.10027">
        <ele>468</ele>
        <time>2013-06-04T15:40:03Z</time>
      </trkpt>
      <trkpt lat="44.25372" lon="4.10028">
        <ele>468</ele>
        <time>2013-06-04T15:40:04Z</time>
      </trkpt>
      <trkpt lat="44.25364" lon="4.10075">
        <ele>464</ele>
        <time>2013-06-04T15:40:46Z</time>
      </trkpt>
      <trkpt lat="44.25357" lon="4.10098">
        <ele>466</ele>
        <time>2013-06-04T15:41:04Z</time>
      </trkpt>
      <trkpt lat="44.25355" lon="4.10123">
        <ele>466</ele>
        <time>2013-06-04T15:41:25Z</time>
      </trkpt>
      <trkpt lat="44.25354" lon="4.10124">
        <ele>466</ele>
        <time>2013-06-04T15:41:26Z</time>
      </trkpt>
      <trkpt lat="44.25352" lon="4.10172">
        <ele>463</ele>
        <time>2013-06-04T15:42:01Z</time>
      </trkpt>
      <trkpt lat="44.25355" lon="4.10196">
        <ele>463</ele>
        <time>2013-06-04T15:42:18Z</time>
      </trkpt>
      <trkpt lat="44.25357" lon="4.10221">
        <ele>464</ele>
        <time>2013-06-04T15:42:36Z</time>
      </trkpt>
      <trkpt lat="44.25357" lon="4.10222">
        <ele>464</ele>
        <time>2013-06-04T15:42:37Z</time>
      </trkpt>
      <trkpt lat="44.25366" lon="4.10267">
        <ele>461</ele>
        <time>2013-06-04T15:43:15Z</time>
      </trkpt>
      <trkpt lat="44.25372" lon="4.10289">
        <ele>460</ele>
        <time>2013-06-04T15:43:34Z</time>
      </trkpt>
      <trkpt lat="44.25383" lon="4.10309">
        <ele>458</ele>
        <time>2013-06-04T15:43:53Z</time>
      </trkpt>
      <trkpt lat="44.25383" lon="4.1031">
        <ele>458</ele>
        <time>2013-06-04T15:43:54Z</time>
      </trkpt>
      <trkpt lat="44.25401" lon="4.10351">
        <ele>456</ele>
        <time>2013-06-04T15:44:32Z</time>
      </trkpt>
      <trkpt lat="44.25407" lon="4.10374">
        <ele>456</ele>
        <time>2013-06-04T15:44:53Z</time>
      </trkpt>
      <trkpt lat="44.25418" lon="4.10393">
        <ele>452</ele>
        <time>2013-06-04T15:45:15Z</time>
      </trkpt>
      <trkpt lat="44.25419" lon="4.10394">
        <ele>452</ele>
        <time>2013-06-04T15:45:16Z</time>
      </trkpt>
      <trkpt lat="44.25446" lon="4.10424">
        <ele>441</ele>
        <time>2013-06-04T15:46:00Z</time>
      </trkpt>
      <trkpt lat="44.2546" lon="4.10439">
        <ele>438</ele>
        <time>2013-06-04T15:46:24Z</time>
      </trkpt>
      <trkpt lat="44.25461" lon="4.1044">
        <ele>438</ele>
        <time>2013-06-04T15:46:25Z</time>
      </trkpt>
      <trkpt lat="44.25489" lon="4.10469">
        <ele>433</ele>
        <time>2013-06-04T15:47:08Z</time>
      </trkpt>
      <trkpt lat="44.25503" lon="4.10483">
        <ele>429</ele>
        <time>2013-06-04T15:47:32Z</time>
      </trkpt>
      <trkpt lat="44.25504" lon="4.10484">
        <ele>429</ele>
        <time>2013-06-04T15:47:33Z</time>
      </trkpt>
      <trkpt lat="44.25497" lon="4.10529">
        <ele>424</ele>
        <time>2013-06-04T15:48:16Z</time>
      </trkpt>
      <trkpt lat="44.25488" lon="4.1055">
        <ele>423</ele>
        <time>2013-06-04T15:48:37Z</time>
      </trkpt>
      <trkpt lat="44.25487" lon="4.10552">
        <ele>423</ele>
        <time>2013-06-04T15:48:38Z</time>
      </trkpt>
      <trkpt lat="44.25473" lon="4.10595">
        <ele>415</ele>
        <time>2013-06-04T15:49:28Z</time>
      </trkpt>
      <trkpt lat="44.25462" lon="4.10614">
        <ele>412</ele>
        <time>2013-06-04T15:49:51Z</time>
      </trkpt>
      <trkpt lat="44.25462" lon="4.10615">
        <ele>412</ele>
        <time>2013-06-04T15:49:52Z</time>
      </trkpt>
      <trkpt lat="44.25439" lon="4.1065">
        <ele>405</ele>
        <time>2013-06-04T15:50:32Z</time>
      </trkpt>
      <trkpt lat="44.25423" lon="4.10658">
        <ele>406</ele>
        <time>2013-06-04T15:50:51Z</time>
      </trkpt>
      <trkpt lat="44.25406" lon="4.10662">
        <ele>404</ele>
        <time>2013-06-04T15:51:09Z</time>
      </trkpt>
      <trkpt lat="44.25405" lon="4.10662">
        <ele>404</ele>
        <time>2013-06-04T15:51:10Z</time>
      </trkpt>
      <trkpt lat="44.25371" lon="4.10666">
        <ele>409</ele>
        <time>2013-06-04T15:51:45Z</time>
      </trkpt>
      <trkpt lat="44.25354" lon="4.10668">
        <ele>408</ele>
        <time>2013-06-04T15:52:04Z</time>
      </trkpt>
      <trkpt lat="44.25336" lon="4.10667">
        <ele>400</ele>
        <time>2013-06-04T15:52:27Z</time>
      </trkpt>
      <trkpt lat="44.25335" lon="4.10667">
        <ele>399</ele>
        <time>2013-06-04T15:52:28Z</time>
      </trkpt>
      <trkpt lat="44.25301" lon="4.10658">
        <ele>399</ele>
        <time>2013-06-04T16:03:01Z</time>
      </trkpt>
      <trkpt lat="44.25301" lon="4.10658">
        <ele>398</ele>
        <time>2013-06-04T16:03:02Z</time>
      </trkpt>
      <trkpt lat="44.25268" lon="4.10643">
        <ele>389</ele>
        <time>2013-06-04T16:03:49Z</time>
      </trkpt>
      <trkpt lat="44.25251" lon="4.10652">
        <ele>391</ele>
        <time>2013-06-04T16:04:11Z</time>
      </trkpt>
      <trkpt lat="44.25251" lon="4.10652">
        <ele>391</ele>
        <time>2013-06-04T16:04:12Z</time>
      </trkpt>
      <trkpt lat="44.2524" lon="4.10698">
        <ele>391</ele>
        <time>2013-06-04T16:04:58Z</time>
      </trkpt>
      <trkpt lat="44.25238" lon="4.10723">
        <ele>386</ele>
        <time>2013-06-04T16:05:22Z</time>
      </trkpt>
      <trkpt lat="44.25238" lon="4.10724">
        <ele>386</ele>
        <time>2013-06-04T16:05:23Z</time>
      </trkpt>
      <trkpt lat="44.25228" lon="4.10767">
        <ele>376</ele>
        <time>2013-06-04T16:06:26Z</time>
      </trkpt>
      <trkpt lat="44.25227" lon="4.10768">
        <ele>375</ele>
        <time>2013-06-04T16:06:27Z</time>
      </trkpt>
      <trkpt lat="44.25198" lon="4.1079">
        <ele>375</ele>
        <time>2013-06-04T16:07:04Z</time>
      </trkpt>
      <trkpt lat="44.25181" lon="4.10798">
        <ele>375</ele>
        <time>2013-06-04T16:07:21Z</time>
      </trkpt>
      <trkpt lat="44.25166" lon="4.10811">
        <ele>376</ele>
        <time>2013-06-04T16:07:39Z</time>
      </trkpt>
      <trkpt lat="44.25165" lon="4.10812">
        <ele>376</ele>
        <time>2013-06-04T16:07:40Z</time>
      </trkpt>
      <trkpt lat="44.25144" lon="4.10847">
        <ele>382</ele>
        <time>2013-06-04T16:08:10Z</time>
      </trkpt>
      <trkpt lat="44.25139" lon="4.10871">
        <ele>387</ele>
        <time>2013-06-04T16:08:29Z</time>
      </trkpt>
      <trkpt lat="44.25154" lon="4.10858">
        <ele>381</ele>
        <time>2013-06-04T16:09:03Z</time>
      </trkpt>
      <trkpt lat="44.25154" lon="4.10857">
        <ele>382</ele>
        <time>2013-06-04T16:09:04Z</time>
      </trkpt>
      <trkpt lat="44.25186" lon="4.10839">
        <ele>364</ele>
        <time>2013-06-04T16:09:48Z</time>
      </trkpt>
      <trkpt lat="44.25196" lon="4.10858">
        <ele>363</ele>
        <time>2013-06-04T16:10:12Z</time>
      </trkpt>
      <trkpt lat="44.25197" lon="4.1086">
        <ele>363</ele>
        <time>2013-06-04T16:10:13Z</time>
      </trkpt>
      <trkpt lat="44.25216" lon="4.10876">
        <ele>355</ele>
        <time>2013-06-04T16:11:00Z</time>
      </trkpt>
      <trkpt lat="44.2523" lon="4.10862">
        <ele>360</ele>
        <time>2013-06-04T16:11:15Z</time>
      </trkpt>
      <trkpt lat="44.25231" lon="4.10861">
        <ele>361</ele>
        <time>2013-06-04T16:11:16Z</time>
      </trkpt>
      <trkpt lat="44.25263" lon="4.10844">
        <ele>355</ele>
        <time>2013-06-04T16:11:52Z</time>
      </trkpt>
      <trkpt lat="44.25279" lon="4.10831">
        <ele>351</ele>
        <time>2013-06-04T16:12:15Z</time>
      </trkpt>
      <trkpt lat="44.25294" lon="4.10842">
        <ele>351</ele>
        <time>2013-06-04T16:12:32Z</time>
      </trkpt>
      <trkpt lat="44.25295" lon="4.10843">
        <ele>351</ele>
        <time>2013-06-04T16:12:33Z</time>
      </trkpt>
      <trkpt lat="44.25321" lon="4.10873">
        <ele>349</ele>
        <time>2013-06-04T16:13:05Z</time>
      </trkpt>
      <trkpt lat="44.25335" lon="4.10888">
        <ele>347</ele>
        <time>2013-06-04T16:13:24Z</time>
      </trkpt>
      <trkpt lat="44.2535" lon="4.10902">
        <ele>344</ele>
        <time>2013-06-04T16:13:44Z</time>
      </trkpt>
      <trkpt lat="44.2535" lon="4.10903">
        <ele>343</ele>
        <time>2013-06-04T16:13:45Z</time>
      </trkpt>
      <trkpt lat="44.25384" lon="4.10915">
        <ele>343</ele>
        <time>2013-06-04T16:14:19Z</time>
      </trkpt>
      <trkpt lat="44.25402" lon="4.10917">
        <ele>340</ele>
        <time>2013-06-04T16:14:43Z</time>
      </trkpt>
      <trkpt lat="44.25419" lon="4.10914">
        <ele>337</ele>
        <time>2013-06-04T16:15:05Z</time>
      </trkpt>
      <trkpt lat="44.2542" lon="4.10913">
        <ele>337</ele>
        <time>2013-06-04T16:15:06Z</time>
      </trkpt>
      <trkpt lat="44.25452" lon="4.10922">
        <ele>333</ele>
        <time>2013-06-04T16:15:37Z</time>
      </trkpt>
      <trkpt lat="44.25466" lon="4.10937">
        <ele>333</ele>
        <time>2013-06-04T16:15:53Z</time>
      </trkpt>
      <trkpt lat="44.25476" lon="4.10955">
        <ele>330</ele>
        <time>2013-06-04T16:16:11Z</time>
      </trkpt>
      <trkpt lat="44.25477" lon="4.10956">
        <ele>330</ele>
        <time>2013-06-04T16:16:12Z</time>
      </trkpt>
      <trkpt lat="44.255" lon="4.10991">
        <ele>324</ele>
        <time>2013-06-04T16:16:49Z</time>
      </trkpt>
      <trkpt lat="44.25516" lon="4.11001">
        <ele>322</ele>
        <time>2013-06-04T16:17:08Z</time>
      </trkpt>
      <trkpt lat="44.25533" lon="4.11002">
        <ele>319</ele>
        <time>2013-06-04T16:17:28Z</time>
      </trkpt>
      <trkpt lat="44.25534" lon="4.11002">
        <ele>319</ele>
        <time>2013-06-04T16:17:29Z</time>
      </trkpt>
      <trkpt lat="44.25566" lon="4.10989">
        <ele>311</ele>
        <time>2013-06-04T16:18:10Z</time>
      </trkpt>
      <trkpt lat="44.25582" lon="4.1098">
        <ele>310</ele>
        <time>2013-06-04T16:18:33Z</time>
      </trkpt>
      <trkpt lat="44.25583" lon="4.1098">
        <ele>310</ele>
        <time>2013-06-04T16:18:34Z</time>
      </trkpt>
      <trkpt lat="44.25617" lon="4.1099">
        <ele>311</ele>
        <time>2013-06-04T16:19:31Z</time>
      </trkpt>
      <trkpt lat="44.25634" lon="4.10997">
        <ele>310</ele>
        <time>2013-06-04T16:20:27Z</time>
      </trkpt>
      <trkpt lat="44.25634" lon="4.10998">
        <ele>310</ele>
        <time>2013-06-04T16:20:28Z</time>
      </trkpt>
      <trkpt lat="44.2566" lon="4.11028">
        <ele>305</ele>
        <time>2013-06-04T16:21:07Z</time>
      </trkpt>
      <trkpt lat="44.25672" lon="4.11047">
        <ele>306</ele>
        <time>2013-06-04T16:21:26Z</time>
      </trkpt>
      <trkpt lat="44.2568" lon="4.11069">
        <ele>307</ele>
        <time>2013-06-04T16:21:42Z</time>
      </trkpt>
      <trkpt lat="44.2568" lon="4.11071">
        <ele>307</ele>
        <time>2013-06-04T16:21:43Z</time>
      </trkpt>
      <trkpt lat="44.25704" lon="4.11104">
        <ele>304</ele>
        <time>2013-06-04T16:22:22Z</time>
      </trkpt>
      <trkpt lat="44.25714" lon="4.11125">
        <ele>306</ele>
        <time>2013-06-04T16:22:42Z</time>
      </trkpt>
      <trkpt lat="44.25724" lon="4.11145">
        <ele>302</ele>
        <time>2013-06-04T16:23:35Z</time>
      </trkpt>
      <trkpt lat="44.25725" lon="4.11145">
        <ele>302</ele>
        <time>2013-06-04T16:23:36Z</time>
      </trkpt>
      <trkpt lat="44.25756" lon="4.11159">
        <ele>298</ele>
        <time>2013-06-04T16:24:09Z</time>
      </trkpt>
      <trkpt lat="44.25772" lon="4.11171">
        <ele>298</ele>
        <time>2013-06-04T16:24:26Z</time>
      </trkpt>
      <trkpt lat="44.25783" lon="4.11189">
        <ele>301</ele>
        <time>2013-06-04T16:24:53Z</time>
      </trkpt>
      <trkpt lat="44.25784" lon="4.11189">
        <ele>300</ele>
        <time>2013-06-04T16:24:54Z</time>
      </trkpt>
      <trkpt lat="44.25813" lon="4.11216">
        <ele>296</ele>
        <time>2013-06-04T16:25:45Z</time>
      </trkpt>
      <trkpt lat="44.25828" lon="4.1123">
        <ele>293</ele>
        <time>2013-06-04T16:26:05Z</time>
      </trkpt>
      <trkpt lat="44.25829" lon="4.1123">
        <ele>292</ele>
        <time>2013-06-04T16:26:06Z</time>
      </trkpt>
      <trkpt lat="44.25859" lon="4.1125">
        <ele>290</ele>
        <time>2013-06-04T16:27:45Z</time>
      </trkpt>
      <trkpt lat="44.2586" lon="4.1125">
        <ele>290</ele>
        <time>2013-06-04T16:27:46Z</time>
      </trkpt>
      <trkpt lat="44.25871" lon="4.11295">
        <ele>288</ele>
        <time>2013-06-04T16:28:21Z</time>
      </trkpt>
      <trkpt lat="44.25879" lon="4.11317">
        <ele>284</ele>
        <time>2013-06-04T16:28:39Z</time>
      </trkpt>
      <trkpt lat="44.25888" lon="4.11339">
        <ele>282</ele>
        <time>2013-06-04T16:28:56Z</time>
      </trkpt>
      <trkpt lat="44.25888" lon="4.1134">
        <ele>282</ele>
        <time>2013-06-04T16:28:57Z</time>
      </trkpt>
      <trkpt lat="44.25908" lon="4.11379">
        <ele>278</ele>
        <time>2013-06-04T16:29:35Z</time>
      </trkpt>
      <trkpt lat="44.2592" lon="4.11397">
        <ele>276</ele>
        <time>2013-06-04T16:29:54Z</time>
      </trkpt>
      <trkpt lat="44.25926" lon="4.1142">
        <ele>277</ele>
        <time>2013-06-04T16:30:23Z</time>
      </trkpt>
      <trkpt lat="44.25927" lon="4.11421">
        <ele>277</ele>
        <time>2013-06-04T16:30:24Z</time>
      </trkpt>
      <trkpt lat="44.2594" lon="4.11465">
        <ele>274</ele>
        <time>2013-06-04T16:31:04Z</time>
      </trkpt>
      <trkpt lat="44.25951" lon="4.11484">
        <ele>274</ele>
        <time>2013-06-04T16:31:22Z</time>
      </trkpt>
      <trkpt lat="44.25967" lon="4.11496">
        <ele>270</ele>
        <time>2013-06-04T16:31:43Z</time>
      </trkpt>
      <trkpt lat="44.25967" lon="4.11496">
        <ele>270</ele>
        <time>2013-06-04T16:31:44Z</time>
      </trkpt>
      <trkpt lat="44.26" lon="4.11509">
        <ele>266</ele>
        <time>2013-06-04T16:32:27Z</time>
      </trkpt>
      <trkpt lat="44.25984" lon="4.1152">
        <ele>266</ele>
        <time>2013-06-04T16:33:01Z</time>
      </trkpt>
      <trkpt lat="44.25983" lon="4.11521">
        <ele>266</ele>
        <time>2013-06-04T16:33:02Z</time>
      </trkpt>
      <trkpt lat="44.26016" lon="4.1153">
        <ele>256</ele>
        <time>2013-06-04T16:34:19Z</time>
      </trkpt>
      <trkpt lat="44.26017" lon="4.1153">
        <ele>256</ele>
        <time>2013-06-04T16:34:20Z</time>
      </trkpt>
      <trkpt lat="44.26034" lon="4.11566">
        <ele>260</ele>
        <time>2013-06-04T16:34:58Z</time>
      </trkpt>
      <trkpt lat="44.26038" lon="4.11591">
        <ele>256</ele>
        <time>2013-06-04T16:35:22Z</time>
      </trkpt>
      <trkpt lat="44.26038" lon="4.11592">
        <ele>256</ele>
        <time>2013-06-04T16:35:23Z</time>
      </trkpt>
      <trkpt lat="44.26059" lon="4.11629">
        <ele>252</ele>
        <time>2013-06-04T16:35:59Z</time>
      </trkpt>
      <trkpt lat="44.26073" lon="4.11643">
        <ele>251</ele>
        <time>2013-06-04T16:36:17Z</time>
      </trkpt>
      <trkpt lat="44.26089" lon="4.11655">
        <ele>247</ele>
        <time>2013-06-04T16:36:36Z</time>
      </trkpt>
      <trkpt lat="44.2609" lon="4.11656">
        <ele>248</ele>
        <time>2013-06-04T16:36:37Z</time>
      </trkpt>
      <trkpt lat="44.26116" lon="4.11688">
        <ele>247</ele>
        <time>2013-06-04T16:37:10Z</time>
      </trkpt>
      <trkpt lat="44.2613" lon="4.11701">
        <ele>244</ele>
        <time>2013-06-04T16:37:31Z</time>
      </trkpt>
      <trkpt lat="44.26146" lon="4.11712">
        <ele>239</ele>
        <time>2013-06-04T16:37:51Z</time>
      </trkpt>
      <trkpt lat="44.26147" lon="4.11713">
        <ele>239</ele>
        <time>2013-06-04T16:37:52Z</time>
      </trkpt>
      <trkpt lat="44.26177" lon="4.11733">
        <ele>235</ele>
        <time>2013-06-04T16:38:26Z</time>
      </trkpt>
      <trkpt lat="44.2619" lon="4.11749">
        <ele>236</ele>
        <time>2013-06-04T16:38:43Z</time>
      </trkpt>
      <trkpt lat="44.26202" lon="4.11768">
        <ele>236</ele>
        <time>2013-06-04T16:39:01Z</time>
      </trkpt>
      <trkpt lat="44.26203" lon="4.11769">
        <ele>236</ele>
        <time>2013-06-04T16:39:02Z</time>
      </trkpt>
      <trkpt lat="44.26225" lon="4.11803">
        <ele>240</ele>
        <time>2013-06-04T16:39:33Z</time>
      </trkpt>
      <trkpt lat="44.2624" lon="4.11816">
        <ele>242</ele>
        <time>2013-06-04T16:39:51Z</time>
      </trkpt>
      <trkpt lat="44.26255" lon="4.11829">
        <ele>236</ele>
        <time>2013-06-04T16:40:10Z</time>
      </trkpt>
      <trkpt lat="44.26256" lon="4.11829">
        <ele>235</ele>
        <time>2013-06-04T16:40:11Z</time>
      </trkpt>
      <trkpt lat="44.26287" lon="4.1185">
        <ele>230</ele>
        <time>2013-06-04T16:40:46Z</time>
      </trkpt>
      <trkpt lat="44.26303" lon="4.1186">
        <ele>226</ele>
        <time>2013-06-04T16:41:05Z</time>
      </trkpt>
      <trkpt lat="44.26318" lon="4.11873">
        <ele>224</ele>
        <time>2013-06-04T16:41:24Z</time>
      </trkpt>
      <trkpt lat="44.26318" lon="4.11874">
        <ele>223</ele>
        <time>2013-06-04T16:41:25Z</time>
      </trkpt>
      <trkpt lat="44.26349" lon="4.11894">
        <ele>222</ele>
        <time>2013-06-04T16:41:59Z</time>
      </trkpt>
      <trkpt lat="44.26365" lon="4.11902">
        <ele>222</ele>
        <time>2013-06-04T16:42:15Z</time>
      </trkpt>
      <trkpt lat="44.2638" lon="4.11917">
        <ele>220</ele>
        <time>2013-06-04T16:42:33Z</time>
      </trkpt>
      <trkpt lat="44.2638" lon="4.11919">
        <ele>220</ele>
        <time>2013-06-04T16:42:34Z</time>
      </trkpt>
      <trkpt lat="44.26409" lon="4.11944">
        <ele>220</ele>
        <time>2013-06-04T16:43:05Z</time>
      </trkpt>
      <trkpt lat="44.26418" lon="4.11964">
        <ele>222</ele>
        <time>2013-06-04T16:43:23Z</time>
      </trkpt>
      <trkpt lat="44.26428" lon="4.11984">
        <ele>219</ele>
        <time>2013-06-04T16:43:44Z</time>
      </trkpt>
      <trkpt lat="44.26429" lon="4.11985">
        <ele>219</ele>
        <time>2013-06-04T16:43:45Z</time>
      </trkpt>
      <trkpt lat="44.26458" lon="4.12001">
        <ele>209</ele>
        <time>2013-06-04T16:44:20Z</time>
      </trkpt>
      <trkpt lat="44.26474" lon="4.11992">
        <ele>212</ele>
        <time>2013-06-04T16:44:34Z</time>
      </trkpt>
      <trkpt lat="44.26487" lon="4.12006">
        <ele>216</ele>
        <time>2013-06-04T16:44:51Z</time>
      </trkpt>
      <trkpt lat="44.26488" lon="4.12007">
        <ele>216</ele>
        <time>2013-06-04T16:44:52Z</time>
      </trkpt>
      <trkpt lat="44.26486" lon="4.12052">
        <ele>214</ele>
        <time>2013-06-04T16:45:22Z</time>
      </trkpt>
      <trkpt lat="44.26491" lon="4.12076">
        <ele>209</ele>
        <time>2013-06-04T16:45:42Z</time>
      </trkpt>
      <trkpt lat="44.26503" lon="4.12094">
        <ele>210</ele>
        <time>2013-06-04T16:46:01Z</time>
      </trkpt>
      <trkpt lat="44.26504" lon="4.12094">
        <ele>209</ele>
        <time>2013-06-04T16:46:02Z</time>
      </trkpt>
      <trkpt lat="44.26524" lon="4.12127">
        <ele>217</ele>
        <time>2013-06-04T16:50:33Z</time>
      </trkpt>
      <trkpt lat="44.26539" lon="4.12136">
        <ele>213</ele>
        <time>2013-06-04T16:50:53Z</time>
      </trkpt>
      <trkpt lat="44.26542" lon="4.12137">
        <ele>213</ele>
        <time>2013-06-04T16:50:54Z</time>
      </trkpt>
      <trkpt lat="44.26573" lon="4.12153">
        <ele>217</ele>
        <time>2013-06-04T16:51:39Z</time>
      </trkpt>
      <trkpt lat="44.2659" lon="4.12159">
        <ele>216</ele>
        <time>2013-06-04T16:52:01Z</time>
      </trkpt>
      <trkpt lat="44.26591" lon="4.1216">
        <ele>216</ele>
        <time>2013-06-04T16:52:02Z</time>
      </trkpt>
      <trkpt lat="44.26623" lon="4.12173">
        <ele>217</ele>
        <time>2013-06-04T16:52:50Z</time>
      </trkpt>
      <trkpt lat="44.26638" lon="4.12189">
        <ele>222</ele>
        <time>2013-06-04T16:53:11Z</time>
      </trkpt>
      <trkpt lat="44.26638" lon="4.12189">
        <ele>222</ele>
        <time>2013-06-04T16:53:12Z</time>
      </trkpt>
      <trkpt lat="44.26655" lon="4.12229">
        <ele>232</ele>
        <time>2013-06-04T16:53:53Z</time>
      </trkpt>
      <trkpt lat="44.26672" lon="4.12237">
        <ele>227</ele>
        <time>2013-06-04T16:54:17Z</time>
      </trkpt>
      <trkpt lat="44.26672" lon="4.12237">
        <ele>226</ele>
        <time>2013-06-04T16:54:18Z</time>
      </trkpt>
      <trkpt lat="44.26702" lon="4.12227">
        <ele>218</ele>
        <time>2013-06-04T16:55:12Z</time>
      </trkpt>
      <trkpt lat="44.26718" lon="4.12217">
        <ele>218</ele>
        <time>2013-06-04T16:55:31Z</time>
      </trkpt>
      <trkpt lat="44.26719" lon="4.12217">
        <ele>217</ele>
        <time>2013-06-04T16:55:32Z</time>
      </trkpt>
      <trkpt lat="44.26736" lon="4.12175">
        <ele>226</ele>
        <time>2013-06-04T16:56:17Z</time>
      </trkpt>
      <trkpt lat="44.26752" lon="4.12165">
        <ele>232</ele>
        <time>2013-06-04T16:56:33Z</time>
      </trkpt>
      <trkpt lat="44.26753" lon="4.12165">
        <ele>235</ele>
        <time>2013-06-04T16:56:34Z</time>
      </trkpt>
      <trkpt lat="44.26786" lon="4.12155">
        <ele>242</ele>
        <time>2013-06-04T16:57:07Z</time>
      </trkpt>
      <trkpt lat="44.26803" lon="4.12151">
        <ele>242</ele>
        <time>2013-06-04T16:57:27Z</time>
      </trkpt>
      <trkpt lat="44.26821" lon="4.12148">
        <ele>235</ele>
        <time>2013-06-04T16:57:46Z</time>
      </trkpt>
      <trkpt lat="44.26822" lon="4.12148">
        <ele>235</ele>
        <time>2013-06-04T16:57:47Z</time>
      </trkpt>
      <trkpt lat="44.26852" lon="4.12164">
        <ele>241</ele>
        <time>2013-06-04T16:58:21Z</time>
      </trkpt>
      <trkpt lat="44.26859" lon="4.12187">
        <ele>241</ele>
        <time>2013-06-04T16:58:43Z</time>
      </trkpt>
      <trkpt lat="44.26866" lon="4.1221">
        <ele>240</ele>
        <time>2013-06-04T16:59:04Z</time>
      </trkpt>
      <trkpt lat="44.26867" lon="4.12212">
        <ele>240</ele>
        <time>2013-06-04T16:59:05Z</time>
      </trkpt>
      <trkpt lat="44.26866" lon="4.12258">
        <ele>244</ele>
        <time>2013-06-04T16:59:43Z</time>
      </trkpt>
      <trkpt lat="44.26868" lon="4.12281">
        <ele>241</ele>
        <time>2013-06-04T17:00:01Z</time>
      </trkpt>
      <trkpt lat="44.26869" lon="4.12306">
        <ele>246</ele>
        <time>2013-06-04T17:00:22Z</time>
      </trkpt>
      <trkpt lat="44.26869" lon="4.12307">
        <ele>245</ele>
        <time>2013-06-04T17:00:23Z</time>
      </trkpt>
      <trkpt lat="44.26888" lon="4.12348">
        <ele>245</ele>
        <time>2013-06-04T17:01:01Z</time>
      </trkpt>
      <trkpt lat="44.26895" lon="4.1237">
        <ele>247</ele>
        <time>2013-06-04T17:01:21Z</time>
      </trkpt>
      <trkpt lat="44.26892" lon="4.12395">
        <ele>254</ele>
        <time>2013-06-04T17:01:46Z</time>
      </trkpt>
      <trkpt lat="44.26892" lon="4.12396">
        <ele>254</ele>
        <time>2013-06-04T17:01:47Z</time>
      </trkpt>
      <trkpt lat="44.26913" lon="4.12434">
        <ele>254</ele>
        <time>2013-06-04T17:02:27Z</time>
      </trkpt>
      <trkpt lat="44.26929" lon="4.12443">
        <ele>254</ele>
        <time>2013-06-04T17:02:51Z</time>
      </trkpt>
      <trkpt lat="44.26929" lon="4.12444">
        <ele>255</ele>
        <time>2013-06-04T17:02:52Z</time>
      </trkpt>
      <trkpt lat="44.26951" lon="4.12423">
        <ele>257</ele>
        <time>2013-06-04T17:04:20Z</time>
      </trkpt>
      <trkpt lat="44.26951" lon="4.12422">
        <ele>257</ele>
        <time>2013-06-04T17:04:21Z</time>
      </trkpt>
      <trkpt lat="44.26951" lon="4.12422">
        <ele>255</ele>
        <time>2013-06-04T17:05:59Z</time>
      </trkpt>
      <trkpt lat="44.26951" lon="4.12423">
        <ele>256</ele>
        <time>2013-06-04T17:06:00Z</time>
      </trkpt>
      <trkpt lat="44.26977" lon="4.12401">
        <ele>249</ele>
        <time>2013-06-04T17:07:20Z</time>
      </trkpt>
      <trkpt lat="44.26978" lon="4.124">
        <ele>249</ele>
        <time>2013-06-04T17:07:21Z</time>
      </trkpt>
      <trkpt lat="44.2701" lon="4.12387">
        <ele>248</ele>
        <time>2013-06-04T17:07:54Z</time>
      </trkpt>
      <trkpt lat="44.27028" lon="4.12387">
        <ele>245</ele>
        <time>2013-06-04T17:08:14Z</time>
      </trkpt>
      <trkpt lat="44.27045" lon="4.12389">
        <ele>242</ele>
        <time>2013-06-04T17:08:33Z</time>
      </trkpt>
      <trkpt lat="44.27046" lon="4.12389">
        <ele>241</ele>
        <time>2013-06-04T17:08:34Z</time>
      </trkpt>
      <trkpt lat="44.27079" lon="4.12385">
        <ele>236</ele>
        <time>2013-06-04T17:09:11Z</time>
      </trkpt>
      <trkpt lat="44.27094" lon="4.12373">
        <ele>228</ele>
        <time>2013-06-04T17:09:38Z</time>
      </trkpt>
      <trkpt lat="44.27095" lon="4.12373">
        <ele>226</ele>
        <time>2013-06-04T17:09:39Z</time>
      </trkpt>
      <trkpt lat="44.27123" lon="4.1235">
        <ele>217</ele>
        <time>2013-06-04T17:10:17Z</time>
      </trkpt>
      <trkpt lat="44.27138" lon="4.12363">
        <ele>225</ele>
        <time>2013-06-04T17:11:33Z</time>
      </trkpt>
      <trkpt lat="44.27139" lon="4.12363">
        <ele>226</ele>
        <time>2013-06-04T17:11:34Z</time>
      </trkpt>
      <trkpt lat="44.27165" lon="4.12333">
        <ele>230</ele>
        <time>2013-06-04T17:12:21Z</time>
      </trkpt>
      <trkpt lat="44.27172" lon="4.1231">
        <ele>203</ele>
        <time>2013-06-04T17:12:55Z</time>
      </trkpt>
      <trkpt lat="44.27173" lon="4.12309">
        <ele>202</ele>
        <time>2013-06-04T17:12:56Z</time>
      </trkpt>
      <trkpt lat="44.272" lon="4.12281">
        <ele>199</ele>
        <time>2013-06-04T17:13:44Z</time>
      </trkpt>
      <trkpt lat="44.27211" lon="4.12264">
        <ele>205</ele>
        <time>2013-06-04T17:14:19Z</time>
      </trkpt>
      <trkpt lat="44.27213" lon="4.12263">
        <ele>205</ele>
        <time>2013-06-04T17:14:20Z</time>
      </trkpt>
      <trkpt lat="44.27225" lon="4.1222">
        <ele>182</ele>
        <time>2013-06-04T17:14:56Z</time>
      </trkpt>
      <trkpt lat="44.27237" lon="4.12202">
        <ele>184</ele>
        <time>2013-06-04T17:15:25Z</time>
      </trkpt>
      <trkpt lat="44.27238" lon="4.12202">
        <ele>186</ele>
        <time>2013-06-04T17:15:26Z</time>
      </trkpt>
      <trkpt lat="44.27265" lon="4.12174">
        <ele>195</ele>
        <time>2013-06-04T17:15:57Z</time>
      </trkpt>
      <trkpt lat="44.27279" lon="4.12159">
        <ele>194</ele>
        <time>2013-06-04T17:16:13Z</time>
      </trkpt>
      <trkpt lat="44.27297" lon="4.12159">
        <ele>190</ele>
        <time>2013-06-04T17:16:31Z</time>
      </trkpt>
      <trkpt lat="44.27297" lon="4.1216">
        <ele>190</ele>
        <time>2013-06-04T17:16:32Z</time>
      </trkpt>
      <trkpt lat="44.27316" lon="4.122">
        <ele>187</ele>
        <time>2013-06-04T17:17:03Z</time>
      </trkpt>
      <trkpt lat="44.27325" lon="4.12221">
        <ele>185</ele>
        <time>2013-06-04T17:17:20Z</time>
      </trkpt>
      <trkpt lat="44.27341" lon="4.1223">
        <ele>184</ele>
        <time>2013-06-04T17:17:35Z</time>
      </trkpt>
      <trkpt lat="44.27343" lon="4.12231">
        <ele>184</ele>
        <time>2013-06-04T17:17:36Z</time>
      </trkpt>
      <trkpt lat="44.27374" lon="4.12244">
        <ele>188</ele>
        <time>2013-06-04T17:18:02Z</time>
      </trkpt>
      <trkpt lat="44.27383" lon="4.12265">
        <ele>186</ele>
        <time>2013-06-04T17:18:18Z</time>
      </trkpt>
      <trkpt lat="44.27391" lon="4.12286">
        <ele>184</ele>
        <time>2013-06-04T17:18:34Z</time>
      </trkpt>
      <trkpt lat="44.27397" lon="4.12309">
        <ele>187</ele>
        <time>2013-06-04T17:18:47Z</time>
      </trkpt>
      <trkpt lat="44.27397" lon="4.12311">
        <ele>187</ele>
        <time>2013-06-04T17:18:48Z</time>
      </trkpt>
      <trkpt lat="44.27412" lon="4.12354">
        <ele>184</ele>
        <time>2013-06-04T17:19:21Z</time>
      </trkpt>
      <trkpt lat="44.27424" lon="4.12371">
        <ele>181</ele>
        <time>2013-06-04T17:19:37Z</time>
      </trkpt>
      <trkpt lat="44.27437" lon="4.12388">
        <ele>181</ele>
        <time>2013-06-04T17:19:53Z</time>
      </trkpt>
      <trkpt lat="44.27437" lon="4.12389">
        <ele>181</ele>
        <time>2013-06-04T17:19:54Z</time>
      </trkpt>
      <trkpt lat="44.27457" lon="4.12426">
        <ele>180</ele>
        <time>2013-06-04T17:20:27Z</time>
      </trkpt>
      <trkpt lat="44.27449" lon="4.12447">
        <ele>182</ele>
        <time>2013-06-04T17:20:43Z</time>
      </trkpt>
      <trkpt lat="44.27439" lon="4.12468">
        <ele>193</ele>
        <time>2013-06-04T17:21:05Z</time>
      </trkpt>
      <trkpt lat="44.27439" lon="4.12469">
        <ele>194</ele>
        <time>2013-06-04T17:21:06Z</time>
      </trkpt>
      <trkpt lat="44.27419" lon="4.12508">
        <ele>197</ele>
        <time>2013-06-04T17:21:39Z</time>
      </trkpt>
      <trkpt lat="44.27404" lon="4.12521">
        <ele>201</ele>
        <time>2013-06-04T17:21:54Z</time>
      </trkpt>
      <trkpt lat="44.2739" lon="4.12536">
        <ele>193</ele>
        <time>2013-06-04T17:22:11Z</time>
      </trkpt>
      <trkpt lat="44.27389" lon="4.12537">
        <ele>193</ele>
        <time>2013-06-04T17:22:12Z</time>
      </trkpt>
    </trkseg>
  </trk>
</gpx>